sensor_id;sensor_type;location;lat;lon;timestamp;temperature;humidity
8557;DHT22;4316;53.840;10.762;2023-12-07T00:01:35;1.10;1.00
8557;DHT22;4316;53.840;10.762;2023-12-07T00:04:01;1.10;1.00
8557;DHT22;4316;53.840;10.762;2023-12-07T00:06:27;1.10;1.00
8557;DHT22;4316;53.840;10.762;2023-12-07T00:08:53;1.10;1.00
8557;DHT22;4316;53.840;10.762;2023-12-07T00:11:18;1.10;1.00
8557;DHT22;4316;53.840;10.762;2023-12-07T00:13:44;1.00;1.00
8557;DHT22;4316;53.840;10.762;2023-12-07T00:16:10;1.10;1.00
8557;DHT22;4316;53.840;10.762;2023-12-07T00:18:35;1.10;1.00
8557;DHT22;4316;53.840;10.762;2023-12-07T00:21:01;1.00;1.00
8557;DHT22;4316;53.840;10.762;2023-12-07T00:23:27;1.00;1.00
8557;DHT22;4316;53.840;10.762;2023-12-07T00:25:53;1.00;1.00
8557;DHT22;4316;53.840;10.762;2023-12-07T00:28:18;1.00;1.00
8557;DHT22;4316;53.840;10.762;2023-12-07T00:30:44;0.90;1.00
8557;DHT22;4316;53.840;10.762;2023-12-07T00:33:10;1.00;1.00
8557;DHT22;4316;53.840;10.762;2023-12-07T00:35:35;1.00;1.00
8557;DHT22;4316;53.840;10.762;2023-12-07T00:38:02;1.00;1.00
8557;DHT22;4316;53.840;10.762;2023-12-07T00:40:28;1.00;1.00
8557;DHT22;4316;53.840;10.762;2023-12-07T00:42:53;0.90;1.00
8557;DHT22;4316;53.840;10.762;2023-12-07T00:45:19;0.90;1.00
8557;DHT22;4316;53.840;10.762;2023-12-07T00:47:45;0.80;2.10
8557;DHT22;4316;53.840;10.762;2023-12-07T00:50:14;0.90;6.40
8557;DHT22;4316;53.840;10.762;2023-12-07T00:52:40;1.00;3.70
8557;DHT22;4316;53.840;10.762;2023-12-07T00:55:06;1.00;3.60
8557;DHT22;4316;53.840;10.762;2023-12-07T00:57:32;1.00;1.90
8557;DHT22;4316;53.840;10.762;2023-12-07T00:59:57;1.10;1.00
8557;DHT22;4316;53.840;10.762;2023-12-07T01:02:23;1.00;1.00
8557;DHT22;4316;53.840;10.762;2023-12-07T01:04:49;1.00;1.00
8557;DHT22;4316;53.840;10.762;2023-12-07T01:07:15;1.00;2.00
8557;DHT22;4316;53.840;10.762;2023-12-07T01:09:41;0.90;1.00
8557;DHT22;4316;53.840;10.762;2023-12-07T01:12:06;1.00;1.00
8557;DHT22;4316;53.840;10.762;2023-12-07T01:14:32;1.00;2.30
8557;DHT22;4316;53.840;10.762;2023-12-07T01:16:58;0.90;2.70
8557;DHT22;4316;53.840;10.762;2023-12-07T01:19:23;1.10;1.30
8557;DHT22;4316;53.840;10.762;2023-12-07T01:21:50;1.00;1.10
8557;DHT22;4316;53.840;10.762;2023-12-07T01:24:16;1.00;1.00
8557;DHT22;4316;53.840;10.762;2023-12-07T01:26:42;1.00;1.00
8557;DHT22;4316;53.840;10.762;2023-12-07T01:29:08;1.00;1.00
8557;DHT22;4316;53.840;10.762;2023-12-07T01:31:34;1.00;1.40
8557;DHT22;4316;53.840;10.762;2023-12-07T01:33:59;1.10;1.00
8557;DHT22;4316;53.840;10.762;2023-12-07T01:36:25;1.10;1.00
8557;DHT22;4316;53.840;10.762;2023-12-07T01:38:51;1.10;1.00
8557;DHT22;4316;53.840;10.762;2023-12-07T01:41:17;1.10;1.00
8557;DHT22;4316;53.840;10.762;2023-12-07T01:43:47;1.20;1.00
8557;DHT22;4316;53.840;10.762;2023-12-07T01:46:13;1.10;1.00
8557;DHT22;4316;53.840;10.762;2023-12-07T01:48:40;1.00;1.00
8557;DHT22;4316;53.840;10.762;2023-12-07T01:51:06;1.10;1.00
8557;DHT22;4316;53.840;10.762;2023-12-07T01:53:33;1.10;1.00
8557;DHT22;4316;53.840;10.762;2023-12-07T01:55:59;1.00;1.00
8557;DHT22;4316;53.840;10.762;2023-12-07T01:58:25;1.20;1.00
8557;DHT22;4316;53.840;10.762;2023-12-07T02:00:51;1.10;1.00
8557;DHT22;4316;53.840;10.762;2023-12-07T02:03:17;1.20;1.00
8557;DHT22;4316;53.840;10.762;2023-12-07T02:05:46;1.20;1.00
8557;DHT22;4316;53.840;10.762;2023-12-07T02:08:12;1.20;1.00
8557;DHT22;4316;53.840;10.762;2023-12-07T02:10:38;1.20;1.00
8557;DHT22;4316;53.840;10.762;2023-12-07T02:13:04;1.10;1.00
8557;DHT22;4316;53.840;10.762;2023-12-07T02:15:30;1.10;1.00
8557;DHT22;4316;53.840;10.762;2023-12-07T02:24:47;1.10;1.00
8557;DHT22;4316;53.840;10.762;2023-12-07T02:27:14;1.10;1.00
8557;DHT22;4316;53.840;10.762;2023-12-07T02:29:40;1.20;1.00
8557;DHT22;4316;53.840;10.762;2023-12-07T02:32:05;1.20;1.00
8557;DHT22;4316;53.840;10.762;2023-12-07T02:34:31;1.20;1.00
8557;DHT22;4316;53.840;10.762;2023-12-07T02:36:59;1.20;1.00
8557;DHT22;4316;53.840;10.762;2023-12-07T02:39:27;1.20;1.00
8557;DHT22;4316;53.840;10.762;2023-12-07T02:41:53;1.20;1.00
8557;DHT22;4316;53.840;10.762;2023-12-07T02:44:20;1.20;1.00
8557;DHT22;4316;53.840;10.762;2023-12-07T02:46:46;1.20;1.00
8557;DHT22;4316;53.840;10.762;2023-12-07T02:49:12;1.10;1.00
8557;DHT22;4316;53.840;10.762;2023-12-07T02:51:38;1.10;1.00
8557;DHT22;4316;53.840;10.762;2023-12-07T02:54:04;1.00;1.00
8557;DHT22;4316;53.840;10.762;2023-12-07T02:56:30;1.10;1.00
8557;DHT22;4316;53.840;10.762;2023-12-07T02:58:55;1.20;1.00
8557;DHT22;4316;53.840;10.762;2023-12-07T03:01:21;1.20;1.00
8557;DHT22;4316;53.840;10.762;2023-12-07T03:03:47;1.20;1.00
8557;DHT22;4316;53.840;10.762;2023-12-07T03:06:12;1.10;1.00
8557;DHT22;4316;53.840;10.762;2023-12-07T03:08:39;1.10;1.00
8557;DHT22;4316;53.840;10.762;2023-12-07T03:11:05;1.20;1.00
8557;DHT22;4316;53.840;10.762;2023-12-07T03:13:30;1.20;1.00
8557;DHT22;4316;53.840;10.762;2023-12-07T03:15:56;1.30;1.00
8557;DHT22;4316;53.840;10.762;2023-12-07T03:18:22;1.20;1.00
8557;DHT22;4316;53.840;10.762;2023-12-07T03:20:48;1.20;1.00
8557;DHT22;4316;53.840;10.762;2023-12-07T03:23:16;1.10;1.00
8557;DHT22;4316;53.840;10.762;2023-12-07T03:25:42;1.20;1.00
8557;DHT22;4316;53.840;10.762;2023-12-07T03:28:07;1.20;1.00
8557;DHT22;4316;53.840;10.762;2023-12-07T03:30:33;1.20;1.00
8557;DHT22;4316;53.840;10.762;2023-12-07T03:32:59;1.10;1.00
8557;DHT22;4316;53.840;10.762;2023-12-07T03:35:25;1.10;1.00
8557;DHT22;4316;53.840;10.762;2023-12-07T03:37:50;1.10;1.00
8557;DHT22;4316;53.840;10.762;2023-12-07T03:40:16;1.00;1.00
8557;DHT22;4316;53.840;10.762;2023-12-07T03:42:42;1.00;1.00
8557;DHT22;4316;53.840;10.762;2023-12-07T03:45:09;0.90;1.30
8557;DHT22;4316;53.840;10.762;2023-12-07T03:47:35;1.00;2.40
8557;DHT22;4316;53.840;10.762;2023-12-07T03:50:00;1.10;3.70
8557;DHT22;4316;53.840;10.762;2023-12-07T03:52:26;1.10;1.00
8557;DHT22;4316;53.840;10.762;2023-12-07T03:54:52;1.10;1.00
8557;DHT22;4316;53.840;10.762;2023-12-07T03:57:17;1.00;1.00
8557;DHT22;4316;53.840;10.762;2023-12-07T03:59:43;1.00;3.70
8557;DHT22;4316;53.840;10.762;2023-12-07T04:02:09;1.10;1.20
8557;DHT22;4316;53.840;10.762;2023-12-07T04:04:35;1.10;1.80
8557;DHT22;4316;53.840;10.762;2023-12-07T04:07:00;1.10;1.00
8557;DHT22;4316;53.840;10.762;2023-12-07T04:09:26;1.10;1.00
8557;DHT22;4316;53.840;10.762;2023-12-07T04:11:52;1.00;1.00
8557;DHT22;4316;53.840;10.762;2023-12-07T04:14:17;1.00;1.00
8557;DHT22;4316;53.840;10.762;2023-12-07T04:16:43;1.00;1.60
8557;DHT22;4316;53.840;10.762;2023-12-07T04:19:09;1.00;3.40
8557;DHT22;4316;53.840;10.762;2023-12-07T04:21:35;1.00;3.10
8557;DHT22;4316;53.840;10.762;2023-12-07T04:24:00;1.00;4.60
8557;DHT22;4316;53.840;10.762;2023-12-07T04:26:26;1.00;4.90
8557;DHT22;4316;53.840;10.762;2023-12-07T04:28:52;0.90;5.40
8557;DHT22;4316;53.840;10.762;2023-12-07T04:31:17;1.00;7.80
8557;DHT22;4316;53.840;10.762;2023-12-07T04:33:43;1.00;7.90
8557;DHT22;4316;53.840;10.762;2023-12-07T04:36:09;1.10;8.40
8557;DHT22;4316;53.840;10.762;2023-12-07T04:38:35;1.00;6.60
8557;DHT22;4316;53.840;10.762;2023-12-07T04:41:01;1.00;6.40
8557;DHT22;4316;53.840;10.762;2023-12-07T04:43:27;1.10;11.40
8557;DHT22;4316;53.840;10.762;2023-12-07T04:45:52;1.00;7.10
8557;DHT22;4316;53.840;10.762;2023-12-07T04:48:18;1.10;9.40
8557;DHT22;4316;53.840;10.762;2023-12-07T04:50:44;1.10;9.10
8557;DHT22;4316;53.840;10.762;2023-12-07T04:53:10;1.10;6.10
8557;DHT22;4316;53.840;10.762;2023-12-07T04:55:35;1.10;4.10
8557;DHT22;4316;53.840;10.762;2023-12-07T04:58:01;1.10;3.00
8557;DHT22;4316;53.840;10.762;2023-12-07T05:00:27;1.20;5.20
8557;DHT22;4316;53.840;10.762;2023-12-07T05:02:53;1.20;4.20
8557;DHT22;4316;53.840;10.762;2023-12-07T05:05:19;1.10;3.30
8557;DHT22;4316;53.840;10.762;2023-12-07T05:07:48;1.10;2.40
8557;DHT22;4316;53.840;10.762;2023-12-07T05:10:13;1.20;6.70
8557;DHT22;4316;53.840;10.762;2023-12-07T05:12:39;1.10;3.20
8557;DHT22;4316;53.840;10.762;2023-12-07T05:15:05;1.10;5.30
8557;DHT22;4316;53.840;10.762;2023-12-07T05:17:31;1.10;5.60
8557;DHT22;4316;53.840;10.762;2023-12-07T05:19:57;1.10;6.00
8557;DHT22;4316;53.840;10.762;2023-12-07T05:22:23;1.10;5.90
8557;DHT22;4316;53.840;10.762;2023-12-07T05:24:49;1.20;7.20
8557;DHT22;4316;53.840;10.762;2023-12-07T05:27:15;1.20;7.80
8557;DHT22;4316;53.840;10.762;2023-12-07T05:29:41;1.20;2.90
8557;DHT22;4316;53.840;10.762;2023-12-07T05:32:07;1.10;2.90
8557;DHT22;4316;53.840;10.762;2023-12-07T05:34:33;1.10;3.50
8557;DHT22;4316;53.840;10.762;2023-12-07T05:37:01;1.10;5.10
8557;DHT22;4316;53.840;10.762;2023-12-07T05:39:26;1.10;6.60
8557;DHT22;4316;53.840;10.762;2023-12-07T05:41:52;1.10;8.00
8557;DHT22;4316;53.840;10.762;2023-12-07T05:44:18;1.20;9.40
8557;DHT22;4316;53.840;10.762;2023-12-07T05:46:47;1.20;6.90
8557;DHT22;4316;53.840;10.762;2023-12-07T05:49:13;1.20;4.40
8557;DHT22;4316;53.840;10.762;2023-12-07T05:51:39;1.10;6.60
8557;DHT22;4316;53.840;10.762;2023-12-07T05:54:05;1.20;6.00
8557;DHT22;4316;53.840;10.762;2023-12-07T05:56:31;1.20;6.00
8557;DHT22;4316;53.840;10.762;2023-12-07T05:58:57;1.10;7.10
8557;DHT22;4316;53.840;10.762;2023-12-07T06:01:23;1.10;10.70
8557;DHT22;4316;53.840;10.762;2023-12-07T06:03:50;1.20;9.60
8557;DHT22;4316;53.840;10.762;2023-12-07T06:06:15;1.20;5.50
8557;DHT22;4316;53.840;10.762;2023-12-07T06:08:41;1.20;8.50
8557;DHT22;4316;53.840;10.762;2023-12-07T06:11:07;1.20;7.20
8557;DHT22;4316;53.840;10.762;2023-12-07T06:13:33;1.20;7.20
8557;DHT22;4316;53.840;10.762;2023-12-07T06:15:59;1.20;9.40
8557;DHT22;4316;53.840;10.762;2023-12-07T06:18:26;1.20;8.00
8557;DHT22;4316;53.840;10.762;2023-12-07T06:20:52;1.20;9.00
8557;DHT22;4316;53.840;10.762;2023-12-07T06:23:18;1.20;11.00
8557;DHT22;4316;53.840;10.762;2023-12-07T06:25:44;1.20;12.80
8557;DHT22;4316;53.840;10.762;2023-12-07T06:28:10;1.20;7.10
8557;DHT22;4316;53.840;10.762;2023-12-07T06:30:36;1.20;5.60
8557;DHT22;4316;53.840;10.762;2023-12-07T06:33:02;1.20;10.70
8557;DHT22;4316;53.840;10.762;2023-12-07T06:35:27;1.20;6.20
8557;DHT22;4316;53.840;10.762;2023-12-07T06:37:53;1.20;7.90
8557;DHT22;4316;53.840;10.762;2023-12-07T06:40:19;1.20;8.80
8557;DHT22;4316;53.840;10.762;2023-12-07T06:42:46;1.20;12.10
8557;DHT22;4316;53.840;10.762;2023-12-07T06:45:11;1.20;11.70
8557;DHT22;4316;53.840;10.762;2023-12-07T06:47:40;1.20;10.60
8557;DHT22;4316;53.840;10.762;2023-12-07T06:50:08;1.20;10.70
8557;DHT22;4316;53.840;10.762;2023-12-07T06:52:39;1.20;11.70
8557;DHT22;4316;53.840;10.762;2023-12-07T06:55:06;1.20;13.60
8557;DHT22;4316;53.840;10.762;2023-12-07T06:57:32;1.20;13.10
8557;DHT22;4316;53.840;10.762;2023-12-07T06:59:58;1.20;13.50
8557;DHT22;4316;53.840;10.762;2023-12-07T07:02:24;1.20;15.90
8557;DHT22;4316;53.840;10.762;2023-12-07T07:04:51;1.20;13.00
8557;DHT22;4316;53.840;10.762;2023-12-07T07:07:17;1.20;16.60
8557;DHT22;4316;53.840;10.762;2023-12-07T07:09:43;1.20;13.50
8557;DHT22;4316;53.840;10.762;2023-12-07T07:12:09;1.20;14.80
8557;DHT22;4316;53.840;10.762;2023-12-07T07:14:35;1.30;17.10
8557;DHT22;4316;53.840;10.762;2023-12-07T07:17:00;1.40;15.80
8557;DHT22;4316;53.840;10.762;2023-12-07T07:19:26;1.40;15.30
8557;DHT22;4316;53.840;10.762;2023-12-07T07:21:52;1.40;17.40
8557;DHT22;4316;53.840;10.762;2023-12-07T07:24:17;1.50;17.80
8557;DHT22;4316;53.840;10.762;2023-12-07T07:26:43;1.50;17.40
8557;DHT22;4316;53.840;10.762;2023-12-07T07:29:09;1.50;15.00
8557;DHT22;4316;53.840;10.762;2023-12-07T07:31:35;1.60;17.20
8557;DHT22;4316;53.840;10.762;2023-12-07T07:34:02;1.60;15.90
8557;DHT22;4316;53.840;10.762;2023-12-07T07:36:28;1.70;16.70
8557;DHT22;4316;53.840;10.762;2023-12-07T07:38:54;1.70;17.60
8557;DHT22;4316;53.840;10.762;2023-12-07T07:41:20;1.80;15.40
8557;DHT22;4316;53.840;10.762;2023-12-07T07:43:46;1.90;11.50
8557;DHT22;4316;53.840;10.762;2023-12-07T07:46:12;1.90;6.60
8557;DHT22;4316;53.840;10.762;2023-12-07T07:48:38;1.90;6.20
8557;DHT22;4316;53.840;10.762;2023-12-07T07:51:04;1.90;6.20
8557;DHT22;4316;53.840;10.762;2023-12-07T07:53:30;1.90;5.60
8557;DHT22;4316;53.840;10.762;2023-12-07T07:55:56;1.90;6.10
8557;DHT22;4316;53.840;10.762;2023-12-07T07:58:22;1.90;4.70
8557;DHT22;4316;53.840;10.762;2023-12-07T08:00:47;1.90;4.50
8557;DHT22;4316;53.840;10.762;2023-12-07T08:03:13;1.90;7.60
8557;DHT22;4316;53.840;10.762;2023-12-07T08:05:39;1.90;4.20
8557;DHT22;4316;53.840;10.762;2023-12-07T08:08:05;1.90;2.50
8557;DHT22;4316;53.840;10.762;2023-12-07T08:10:30;1.90;2.60
8557;DHT22;4316;53.840;10.762;2023-12-07T08:12:56;1.90;1.20
8557;DHT22;4316;53.840;10.762;2023-12-07T08:15:22;1.90;1.70
8557;DHT22;4316;53.840;10.762;2023-12-07T08:17:47;1.90;2.90
8557;DHT22;4316;53.840;10.762;2023-12-07T08:20:13;1.90;1.00
8557;DHT22;4316;53.840;10.762;2023-12-07T08:22:40;1.90;1.00
8557;DHT22;4316;53.840;10.762;2023-12-07T08:25:10;1.90;1.30
8557;DHT22;4316;53.840;10.762;2023-12-07T08:27:37;1.90;2.00
8557;DHT22;4316;53.840;10.762;2023-12-07T08:30:04;1.90;3.20
8557;DHT22;4316;53.840;10.762;2023-12-07T08:32:30;1.90;1.00
8557;DHT22;4316;53.840;10.762;2023-12-07T08:34:56;1.90;1.00
8557;DHT22;4316;53.840;10.762;2023-12-07T08:37:22;1.90;1.00
8557;DHT22;4316;53.840;10.762;2023-12-07T08:39:48;1.90;1.00
8557;DHT22;4316;53.840;10.762;2023-12-07T08:42:14;1.90;1.60
8557;DHT22;4316;53.840;10.762;2023-12-07T08:44:40;1.90;1.70
8557;DHT22;4316;53.840;10.762;2023-12-07T08:47:06;1.90;1.00
8557;DHT22;4316;53.840;10.762;2023-12-07T08:49:32;1.90;1.00
8557;DHT22;4316;53.840;10.762;2023-12-07T08:51:58;1.90;1.00
8557;DHT22;4316;53.840;10.762;2023-12-07T08:54:24;1.90;1.00
8557;DHT22;4316;53.840;10.762;2023-12-07T08:56:51;1.90;1.00
8557;DHT22;4316;53.840;10.762;2023-12-07T08:59:17;1.90;1.00
8557;DHT22;4316;53.840;10.762;2023-12-07T09:01:42;1.90;1.70
8557;DHT22;4316;53.840;10.762;2023-12-07T09:04:08;1.90;1.80
8557;DHT22;4316;53.840;10.762;2023-12-07T09:06:36;1.90;1.00
8557;DHT22;4316;53.840;10.762;2023-12-07T09:09:05;1.90;1.30
8557;DHT22;4316;53.840;10.762;2023-12-07T09:11:31;1.90;1.30
8557;DHT22;4316;53.840;10.762;2023-12-07T09:13:57;1.90;1.00
8557;DHT22;4316;53.840;10.762;2023-12-07T09:16:23;2.00;1.00
8557;DHT22;4316;53.840;10.762;2023-12-07T09:18:50;1.90;1.00
8557;DHT22;4316;53.840;10.762;2023-12-07T09:21:16;1.90;1.00
8557;DHT22;4316;53.840;10.762;2023-12-07T09:23:41;1.90;1.00
8557;DHT22;4316;53.840;10.762;2023-12-07T09:26:08;1.90;1.00
8557;DHT22;4316;53.840;10.762;2023-12-07T09:28:33;1.90;1.00
8557;DHT22;4316;53.840;10.762;2023-12-07T09:31:00;1.90;1.00
8557;DHT22;4316;53.840;10.762;2023-12-07T09:33:25;1.90;1.00
8557;DHT22;4316;53.840;10.762;2023-12-07T09:35:51;1.90;1.00
8557;DHT22;4316;53.840;10.762;2023-12-07T09:38:17;1.90;1.20
8557;DHT22;4316;53.840;10.762;2023-12-07T09:40:44;1.90;2.70
8557;DHT22;4316;53.840;10.762;2023-12-07T09:43:11;1.90;1.90
8557;DHT22;4316;53.840;10.762;2023-12-07T09:45:37;1.90;3.70
8557;DHT22;4316;53.840;10.762;2023-12-07T09:48:04;2.00;4.10
8557;DHT22;4316;53.840;10.762;2023-12-07T09:50:31;2.10;1.00
8557;DHT22;4316;53.840;10.762;2023-12-07T09:52:58;2.10;1.00
8557;DHT22;4316;53.840;10.762;2023-12-07T09:55:24;2.10;1.00
8557;DHT22;4316;53.840;10.762;2023-12-07T09:57:53;2.10;1.00
8557;DHT22;4316;53.840;10.762;2023-12-07T10:00:22;2.10;1.00
8557;DHT22;4316;53.840;10.762;2023-12-07T10:02:48;2.10;1.00
8557;DHT22;4316;53.840;10.762;2023-12-07T10:05:15;2.10;1.00
8557;DHT22;4316;53.840;10.762;2023-12-07T10:07:46;2.00;1.00
8557;DHT22;4316;53.840;10.762;2023-12-07T10:10:17;2.00;1.00
8557;DHT22;4316;53.840;10.762;2023-12-07T10:12:52;2.00;1.00
8557;DHT22;4316;53.840;10.762;2023-12-07T10:15:20;2.10;1.00
8557;DHT22;4316;53.840;10.762;2023-12-07T10:17:51;2.10;1.00
8557;DHT22;4316;53.840;10.762;2023-12-07T10:20:21;2.10;1.00
8557;DHT22;4316;53.840;10.762;2023-12-07T10:23:00;2.10;1.00
8557;DHT22;4316;53.840;10.762;2023-12-07T10:25:29;2.10;1.00
8557;DHT22;4316;53.840;10.762;2023-12-07T10:27:55;2.10;1.00
8557;DHT22;4316;53.840;10.762;2023-12-07T10:30:21;2.20;1.00
8557;DHT22;4316;53.840;10.762;2023-12-07T10:32:51;2.20;1.00
8557;DHT22;4316;53.840;10.762;2023-12-07T10:35:18;2.20;1.00
8557;DHT22;4316;53.840;10.762;2023-12-07T10:37:44;2.30;1.00
8557;DHT22;4316;53.840;10.762;2023-12-07T10:40:10;2.30;1.00
8557;DHT22;4316;53.840;10.762;2023-12-07T10:42:37;2.30;1.00
8557;DHT22;4316;53.840;10.762;2023-12-07T10:45:05;2.30;1.00
8557;DHT22;4316;53.840;10.762;2023-12-07T10:47:36;2.20;1.00
8557;DHT22;4316;53.840;10.762;2023-12-07T10:50:05;2.10;1.00
8557;DHT22;4316;53.840;10.762;2023-12-07T10:52:32;2.10;1.00
8557;DHT22;4316;53.840;10.762;2023-12-07T10:55:06;2.20;1.00
8557;DHT22;4316;53.840;10.762;2023-12-07T10:57:33;2.20;1.00
8557;DHT22;4316;53.840;10.762;2023-12-07T11:00:00;2.20;1.00
8557;DHT22;4316;53.840;10.762;2023-12-07T11:02:27;2.20;1.00
8557;DHT22;4316;53.840;10.762;2023-12-07T11:04:56;2.20;1.00
8557;DHT22;4316;53.840;10.762;2023-12-07T11:07:25;2.20;1.00
8557;DHT22;4316;53.840;10.762;2023-12-07T11:09:57;2.20;1.00
8557;DHT22;4316;53.840;10.762;2023-12-07T11:12:47;2.20;1.00
8557;DHT22;4316;53.840;10.762;2023-12-07T11:15:16;2.20;1.00
8557;DHT22;4316;53.840;10.762;2023-12-07T11:18:04;2.30;1.00
8557;DHT22;4316;53.840;10.762;2023-12-07T11:20:40;2.30;1.00
8557;DHT22;4316;53.840;10.762;2023-12-07T11:23:17;2.30;1.00
8557;DHT22;4316;53.840;10.762;2023-12-07T11:25:47;2.40;1.00
8557;DHT22;4316;53.840;10.762;2023-12-07T11:28:15;2.30;1.00
8557;DHT22;4316;53.840;10.762;2023-12-07T11:30:42;2.30;1.00
8557;DHT22;4316;53.840;10.762;2023-12-07T11:33:09;2.40;1.00
8557;DHT22;4316;53.840;10.762;2023-12-07T11:38:30;2.50;1.00
8557;DHT22;4316;53.840;10.762;2023-12-07T11:40:56;2.60;1.00
8557;DHT22;4316;53.840;10.762;2023-12-07T11:46:10;2.80;1.00
8557;DHT22;4316;53.840;10.762;2023-12-07T11:48:36;2.80;1.00
8557;DHT22;4316;53.840;10.762;2023-12-07T11:51:09;2.80;1.00
8557;DHT22;4316;53.840;10.762;2023-12-07T11:53:37;2.70;1.00
8557;DHT22;4316;53.840;10.762;2023-12-07T11:56:04;2.70;1.00
8557;DHT22;4316;53.840;10.762;2023-12-07T11:58:33;2.70;1.00
8557;DHT22;4316;53.840;10.762;2023-12-07T12:00:59;2.70;1.00
8557;DHT22;4316;53.840;10.762;2023-12-07T12:03:27;2.60;1.00
8557;DHT22;4316;53.840;10.762;2023-12-07T12:05:54;2.60;1.00
8557;DHT22;4316;53.840;10.762;2023-12-07T12:08:22;2.60;1.00
8557;DHT22;4316;53.840;10.762;2023-12-07T12:10:50;2.80;1.00
8557;DHT22;4316;53.840;10.762;2023-12-07T12:13:18;2.50;1.00
8557;DHT22;4316;53.840;10.762;2023-12-07T12:15:45;2.50;1.00
8557;DHT22;4316;53.840;10.762;2023-12-07T12:18:12;2.50;1.00
8557;DHT22;4316;53.840;10.762;2023-12-07T12:20:39;2.50;1.00
8557;DHT22;4316;53.840;10.762;2023-12-07T12:23:05;2.50;1.00
8557;DHT22;4316;53.840;10.762;2023-12-07T12:25:32;2.50;1.00
8557;DHT22;4316;53.840;10.762;2023-12-07T12:28:01;2.40;1.00
8557;DHT22;4316;53.840;10.762;2023-12-07T12:30:28;2.40;1.00
8557;DHT22;4316;53.840;10.762;2023-12-07T12:32:55;2.50;1.00
8557;DHT22;4316;53.840;10.762;2023-12-07T12:35:21;2.50;1.00
8557;DHT22;4316;53.840;10.762;2023-12-07T12:37:49;2.50;1.00
8557;DHT22;4316;53.840;10.762;2023-12-07T12:40:17;2.50;1.00
8557;DHT22;4316;53.840;10.762;2023-12-07T12:42:47;2.50;1.00
8557;DHT22;4316;53.840;10.762;2023-12-07T12:45:17;2.50;1.00
8557;DHT22;4316;53.840;10.762;2023-12-07T12:47:44;2.50;1.00
8557;DHT22;4316;53.840;10.762;2023-12-07T12:50:33;2.50;1.00
8557;DHT22;4316;53.840;10.762;2023-12-07T12:52:58;2.40;1.00
8557;DHT22;4316;53.840;10.762;2023-12-07T12:55:30;2.50;1.00
8557;DHT22;4316;53.840;10.762;2023-12-07T12:57:56;2.40;1.00
8557;DHT22;4316;53.840;10.762;2023-12-07T13:00:26;2.50;1.00
8557;DHT22;4316;53.840;10.762;2023-12-07T13:02:52;2.50;1.00
8557;DHT22;4316;53.840;10.762;2023-12-07T13:05:17;2.50;1.00
8557;DHT22;4316;53.840;10.762;2023-12-07T13:07:46;2.50;1.00
8557;DHT22;4316;53.840;10.762;2023-12-07T13:10:15;2.50;1.00
8557;DHT22;4316;53.840;10.762;2023-12-07T13:12:41;2.50;1.00
8557;DHT22;4316;53.840;10.762;2023-12-07T13:15:07;2.50;1.00
8557;DHT22;4316;53.840;10.762;2023-12-07T13:17:33;2.50;1.00
8557;DHT22;4316;53.840;10.762;2023-12-07T13:19:59;2.50;1.00
8557;DHT22;4316;53.840;10.762;2023-12-07T13:22:24;2.50;1.00
8557;DHT22;4316;53.840;10.762;2023-12-07T13:24:50;2.50;1.00
8557;DHT22;4316;53.840;10.762;2023-12-07T13:27:16;2.50;1.00
8557;DHT22;4316;53.840;10.762;2023-12-07T13:29:42;2.50;1.00
8557;DHT22;4316;53.840;10.762;2023-12-07T13:32:07;2.40;1.00
8557;DHT22;4316;53.840;10.762;2023-12-07T13:34:33;2.40;1.00
8557;DHT22;4316;53.840;10.762;2023-12-07T13:36:59;2.30;1.00
8557;DHT22;4316;53.840;10.762;2023-12-07T13:39:25;2.30;1.00
8557;DHT22;4316;53.840;10.762;2023-12-07T13:41:52;2.30;1.00
8557;DHT22;4316;53.840;10.762;2023-12-07T13:44:19;2.30;1.00
8557;DHT22;4316;53.840;10.762;2023-12-07T13:46:45;2.30;1.00
8557;DHT22;4316;53.840;10.762;2023-12-07T13:49:11;2.40;1.00
8557;DHT22;4316;53.840;10.762;2023-12-07T13:51:40;2.40;1.00
8557;DHT22;4316;53.840;10.762;2023-12-07T13:54:07;2.30;1.00
8557;DHT22;4316;53.840;10.762;2023-12-07T13:56:34;2.30;1.00
8557;DHT22;4316;53.840;10.762;2023-12-07T13:59:00;2.30;1.00
8557;DHT22;4316;53.840;10.762;2023-12-07T14:01:26;2.20;1.00
8557;DHT22;4316;53.840;10.762;2023-12-07T14:03:52;2.20;1.00
8557;DHT22;4316;53.840;10.762;2023-12-07T14:06:22;2.20;1.00
8557;DHT22;4316;53.840;10.762;2023-12-07T14:08:49;2.30;1.00
8557;DHT22;4316;53.840;10.762;2023-12-07T14:11:16;2.20;1.00
8557;DHT22;4316;53.840;10.762;2023-12-07T14:13:42;2.20;1.00
8557;DHT22;4316;53.840;10.762;2023-12-07T14:16:08;2.20;1.00
8557;DHT22;4316;53.840;10.762;2023-12-07T14:18:34;2.10;1.00
8557;DHT22;4316;53.840;10.762;2023-12-07T14:21:00;2.00;1.00
8557;DHT22;4316;53.840;10.762;2023-12-07T14:23:25;2.00;1.00
8557;DHT22;4316;53.840;10.762;2023-12-07T14:25:52;1.90;1.00
8557;DHT22;4316;53.840;10.762;2023-12-07T14:28:24;1.90;1.00
8557;DHT22;4316;53.840;10.762;2023-12-07T14:30:50;1.90;1.00
8557;DHT22;4316;53.840;10.762;2023-12-07T14:33:22;1.90;1.00
8557;DHT22;4316;53.840;10.762;2023-12-07T14:35:47;1.90;1.00
8557;DHT22;4316;53.840;10.762;2023-12-07T14:38:14;1.90;1.00
8557;DHT22;4316;53.840;10.762;2023-12-07T14:40:40;2.00;1.00
8557;DHT22;4316;53.840;10.762;2023-12-07T14:43:06;2.00;1.00
8557;DHT22;4316;53.840;10.762;2023-12-07T14:45:32;2.00;1.00
8557;DHT22;4316;53.840;10.762;2023-12-07T14:47:58;2.00;1.00
8557;DHT22;4316;53.840;10.762;2023-12-07T14:50:24;1.90;1.00
8557;DHT22;4316;53.840;10.762;2023-12-07T14:52:49;1.90;1.00
8557;DHT22;4316;53.840;10.762;2023-12-07T14:55:15;1.90;1.00
8557;DHT22;4316;53.840;10.762;2023-12-07T14:57:41;1.90;1.00
8557;DHT22;4316;53.840;10.762;2023-12-07T15:00:08;1.90;1.00
8557;DHT22;4316;53.840;10.762;2023-12-07T15:02:34;1.80;1.00
8557;DHT22;4316;53.840;10.762;2023-12-07T15:05:00;1.80;1.00
8557;DHT22;4316;53.840;10.762;2023-12-07T15:07:25;1.80;1.00
8557;DHT22;4316;53.840;10.762;2023-12-07T15:09:51;1.70;1.00
8557;DHT22;4316;53.840;10.762;2023-12-07T15:12:17;1.70;1.00
8557;DHT22;4316;53.840;10.762;2023-12-07T15:14:45;1.60;1.60
8557;DHT22;4316;53.840;10.762;2023-12-07T15:17:11;1.60;4.30
8557;DHT22;4316;53.840;10.762;2023-12-07T15:19:37;1.60;4.30
8557;DHT22;4316;53.840;10.762;2023-12-07T15:22:03;1.70;3.90
8557;DHT22;4316;53.840;10.762;2023-12-07T15:24:30;1.70;5.00
8557;DHT22;4316;53.840;10.762;2023-12-07T15:26:55;1.80;1.40
8557;DHT22;4316;53.840;10.762;2023-12-07T15:29:21;1.80;1.00
8557;DHT22;4316;53.840;10.762;2023-12-07T15:31:47;1.70;1.00
8557;DHT22;4316;53.840;10.762;2023-12-07T15:34:12;1.70;2.50
8557;DHT22;4316;53.840;10.762;2023-12-07T15:36:38;1.80;1.00
8557;DHT22;4316;53.840;10.762;2023-12-07T15:39:04;1.80;1.00
8557;DHT22;4316;53.840;10.762;2023-12-07T15:41:32;1.80;1.00
8557;DHT22;4316;53.840;10.762;2023-12-07T15:44:00;1.70;1.00
8557;DHT22;4316;53.840;10.762;2023-12-07T15:46:26;1.70;1.00
8557;DHT22;4316;53.840;10.762;2023-12-07T15:48:51;1.70;1.00
8557;DHT22;4316;53.840;10.762;2023-12-07T15:51:17;1.70;1.00
8557;DHT22;4316;53.840;10.762;2023-12-07T15:53:43;1.60;1.00
8557;DHT22;4316;53.840;10.762;2023-12-07T15:56:09;1.60;1.00
8557;DHT22;4316;53.840;10.762;2023-12-07T15:58:35;1.80;13.60
8557;DHT22;4316;53.840;10.762;2023-12-07T16:01:01;2.00;15.80
8557;DHT22;4316;53.840;10.762;2023-12-07T16:03:27;2.00;11.40
8557;DHT22;4316;53.840;10.762;2023-12-07T16:05:54;2.20;10.70
8557;DHT22;4316;53.840;10.762;2023-12-07T16:08:22;2.10;1.00
8557;DHT22;4316;53.840;10.762;2023-12-07T16:10:49;2.00;1.00
8557;DHT22;4316;53.840;10.762;2023-12-07T16:13:16;1.90;8.50
8557;DHT22;4316;53.840;10.762;2023-12-07T16:15:42;1.90;7.40
8557;DHT22;4316;53.840;10.762;2023-12-07T16:18:08;1.80;8.20
8557;DHT22;4316;53.840;10.762;2023-12-07T16:20:33;1.70;10.40
8557;DHT22;4316;53.840;10.762;2023-12-07T16:22:59;1.90;15.60
8557;DHT22;4316;53.840;10.762;2023-12-07T16:25:25;2.00;11.90